sensor_id;sensor_type;location;lat;lon;timestamp;pressure;altitude;pressure_sealevel;temperature;humidity
59531;BME280;45349;48.692;8.186;2023-04-23T00:02:01;98128.97;;;11.91;100.00
59531;BME280;45349;48.692;8.186;2023-04-23T00:04:30;98141.09;;;11.84;100.00
59531;BME280;45349;48.692;8.186;2023-04-23T00:07:02;98125.59;;;11.82;100.00
59531;BME280;45349;48.692;8.186;2023-04-23T00:09:30;98125.25;;;11.86;100.00
59531;BME280;45349;48.692;8.186;2023-04-23T00:11:57;98135.22;;;11.82;100.00
59531;BME280;45349;48.692;8.186;2023-04-23T00:14:27;98131.97;;;11.80;100.00
59531;BME280;45349;48.692;8.186;2023-04-23T00:16:54;98136.41;;;11.79;100.00
59531;BME280;45349;48.692;8.186;2023-04-23T00:19:21;98138.38;;;11.77;100.00
59531;BME280;45349;48.692;8.186;2023-04-23T00:21:47;98130.53;;;11.77;100.00
59531;BME280;45349;48.692;8.186;2023-04-23T00:24:19;98128.91;;;11.76;100.00
59531;BME280;45349;48.692;8.186;2023-04-23T00:26:45;98130.88;;;11.74;100.00
59531;BME280;45349;48.692;8.186;2023-04-23T00:29:17;98129.25;;;11.73;100.00
59531;BME280;45349;48.692;8.186;2023-04-23T00:31:46;98137.25;;;11.72;100.00
59531;BME280;45349;48.692;8.186;2023-04-23T00:34:17;98131.03;;;11.73;100.00
59531;BME280;45349;48.692;8.186;2023-04-23T00:36:44;98141.81;;;11.70;100.00
59531;BME280;45349;48.692;8.186;2023-04-23T00:39:36;98133.31;;;11.76;100.00
59531;BME280;45349;48.692;8.186;2023-04-23T00:42:03;98153.56;;;11.74;100.00
59531;BME280;45349;48.692;8.186;2023-04-23T00:44:36;98148.34;;;11.74;100.00
59531;BME280;45349;48.692;8.186;2023-04-23T00:47:04;98145.72;;;11.74;100.00
59531;BME280;45349;48.692;8.186;2023-04-23T00:49:32;98147.53;;;11.73;100.00
59531;BME280;45349;48.692;8.186;2023-04-23T00:51:58;98134.59;;;11.80;100.00
59531;BME280;45349;48.692;8.186;2023-04-23T00:54:25;98146.72;;;11.73;100.00
59531;BME280;45349;48.692;8.186;2023-04-23T00:56:52;98141.81;;;11.70;100.00
59531;BME280;45349;48.692;8.186;2023-04-23T00:59:19;98141.47;;;11.73;100.00
59531;BME280;45349;48.692;8.186;2023-04-23T01:01:46;98150.84;;;11.67;100.00
59531;BME280;45349;48.692;8.186;2023-04-23T01:04:19;98149.50;;;11.71;100.00
59531;BME280;45349;48.692;8.186;2023-04-23T01:06:48;98150.00;;;11.66;100.00
59531;BME280;45349;48.692;8.186;2023-04-23T01:09:18;98131.88;;;11.65;100.00
59531;BME280;45349;48.692;8.186;2023-04-23T01:11:46;98144.16;;;11.64;100.00
59531;BME280;45349;48.692;8.186;2023-04-23T01:14:17;98153.47;;;11.59;100.00
59531;BME280;45349;48.692;8.186;2023-04-23T01:16:44;98149.41;;;11.56;100.00
59531;BME280;45349;48.692;8.186;2023-04-23T01:19:19;98140.94;;;11.54;100.00
59531;BME280;45349;48.692;8.186;2023-04-23T01:21:46;98137.47;;;11.54;100.00
59531;BME280;45349;48.692;8.186;2023-04-23T01:24:19;98133.88;;;11.55;100.00
59531;BME280;45349;48.692;8.186;2023-04-23T01:26:46;98142.72;;;11.54;100.00
59531;BME280;45349;48.692;8.186;2023-04-23T01:29:19;98138.81;;;11.49;100.00
59531;BME280;45349;48.692;8.186;2023-04-23T01:31:45;98143.22;;;11.49;100.00
59531;BME280;45349;48.692;8.186;2023-04-23T01:34:18;98149.44;;;11.48;100.00
59531;BME280;45349;48.692;8.186;2023-04-23T01:36:46;98147.16;;;11.45;100.00
59531;BME280;45349;48.692;8.186;2023-04-23T01:39:19;98147.47;;;11.50;100.00
59531;BME280;45349;48.692;8.186;2023-04-23T01:41:46;98143.56;;;11.46;100.00
59531;BME280;45349;48.692;8.186;2023-04-23T01:44:18;98149.28;;;11.41;100.00
59531;BME280;45349;48.692;8.186;2023-04-23T01:46:44;98150.44;;;11.39;100.00
59531;BME280;45349;48.692;8.186;2023-04-23T01:49:17;98149.47;;;11.40;100.00
59531;BME280;45349;48.692;8.186;2023-04-23T01:51:44;98148.81;;;11.37;100.00
59531;BME280;45349;48.692;8.186;2023-04-23T01:54:37;98142.44;;;11.32;100.00
59531;BME280;45349;48.692;8.186;2023-04-23T01:57:04;98154.72;;;11.31;100.00
59531;BME280;45349;48.692;8.186;2023-04-23T01:59:31;98144.59;;;11.28;100.00
59531;BME280;45349;48.692;8.186;2023-04-23T02:01:57;98133.97;;;11.30;100.00
59531;BME280;45349;48.692;8.186;2023-04-23T02:04:24;98137.56;;;11.29;100.00
59531;BME280;45349;48.692;8.186;2023-04-23T02:06:54;98139.53;;;11.27;100.00
59531;BME280;45349;48.692;8.186;2023-04-23T02:09:21;98134.47;;;11.25;100.00
59531;BME280;45349;48.692;8.186;2023-04-23T02:11:49;98128.41;;;11.25;100.00
59531;BME280;45349;48.692;8.186;2023-04-23T02:14:18;98134.28;;;11.27;100.00
59531;BME280;45349;48.692;8.186;2023-04-23T02:16:46;98136.25;;;11.25;100.00
59531;BME280;45349;48.692;8.186;2023-04-23T02:19:17;98131.22;;;11.23;100.00
59531;BME280;45349;48.692;8.186;2023-04-23T02:21:44;98131.22;;;11.23;100.00
59531;BME280;45349;48.692;8.186;2023-04-23T02:24:17;98132.66;;;11.26;100.00
59531;BME280;45349;48.692;8.186;2023-04-23T02:26:44;98131.69;;;11.27;100.00
59531;BME280;45349;48.692;8.186;2023-04-23T02:29:20;98131.53;;;11.28;100.00
59531;BME280;45349;48.692;8.186;2023-04-23T02:31:46;98130.22;;;11.32;100.00
59531;BME280;45349;48.692;8.186;2023-04-23T02:34:17;98123.19;;;11.33;100.00
59531;BME280;45349;48.692;8.186;2023-04-23T02:36:44;98131.50;;;11.36;100.00
59531;BME280;45349;48.692;8.186;2023-04-23T02:39:35;98128.38;;;11.41;100.00
59531;BME280;45349;48.692;8.186;2023-04-23T02:42:03;98120.41;;;11.34;100.00
59531;BME280;45349;48.692;8.186;2023-04-23T02:44:31;98118.44;;;11.36;100.00
59531;BME280;45349;48.692;8.186;2023-04-23T02:46:58;98115.19;;;11.34;100.00
59531;BME280;45349;48.692;8.186;2023-04-23T02:49:25;98123.03;;;11.34;100.00
59531;BME280;45349;48.692;8.186;2023-04-23T02:51:51;98122.69;;;11.37;100.00
59531;BME280;45349;48.692;8.186;2023-04-23T02:54:18;98115.50;;;11.40;100.00
59531;BME280;45349;48.692;8.186;2023-04-23T02:56:44;98127.72;;;11.39;100.00
59531;BME280;45349;48.692;8.186;2023-04-23T02:59:18;98131.19;;;11.40;100.00
59531;BME280;45349;48.692;8.186;2023-04-23T03:01:46;98126.75;;;11.40;100.00
59531;BME280;45349;48.692;8.186;2023-04-23T03:04:18;98123.34;;;11.40;100.00
59531;BME280;45349;48.692;8.186;2023-04-23T03:06:45;98112.22;;;11.46;100.00
59531;BME280;45349;48.692;8.186;2023-04-23T03:09:18;98122.81;;;11.44;100.00
59531;BME280;45349;48.692;8.186;2023-04-23T03:11:46;98119.56;;;11.42;100.00
59531;BME280;45349;48.692;8.186;2023-04-23T03:14:17;98134.91;;;11.45;100.00
59531;BME280;45349;48.692;8.186;2023-04-23T03:16:45;98131.63;;;11.43;100.00
59531;BME280;45349;48.692;8.186;2023-04-23T03:19:18;98127.56;;;11.41;100.00
59531;BME280;45349;48.692;8.186;2023-04-23T03:21:45;98132.16;;;11.39;100.00
59531;BME280;45349;48.692;8.186;2023-04-23T03:24:18;98129.88;;;11.35;100.00
59531;BME280;45349;48.692;8.186;2023-04-23T03:26:45;98132.66;;;11.34;100.00
59531;BME280;45349;48.692;8.186;2023-04-23T03:29:18;98147.19;;;11.36;100.00
59531;BME280;45349;48.692;8.186;2023-04-23T03:31:46;98129.88;;;11.35;100.00
59531;BME280;45349;48.692;8.186;2023-04-23T03:34:18;98136.88;;;11.35;100.00
59531;BME280;45349;48.692;8.186;2023-04-23T03:36:44;98133.47;;;11.34;100.00
59531;BME280;45349;48.692;8.186;2023-04-23T03:39:18;98136.72;;;11.36;100.00
59531;BME280;45349;48.692;8.186;2023-04-23T03:41:51;98129.69;;;11.37;100.00
59531;BME280;45349;48.692;8.186;2023-04-23T03:44:22;98131.66;;;11.35;100.00
59531;BME280;45349;48.692;8.186;2023-04-23T03:46:50;98130.53;;;11.37;100.00
59531;BME280;45349;48.692;8.186;2023-04-23T03:49:19;98135.75;;;11.37;100.00
59531;BME280;45349;48.692;8.186;2023-04-23T03:51:45;98135.09;;;11.35;100.00
59531;BME280;45349;48.692;8.186;2023-04-23T03:54:18;98139.50;;;11.35;100.00
59531;BME280;45349;48.692;8.186;2023-04-23T03:57:17;98145.56;;;11.35;100.00
59531;BME280;45349;48.692;8.186;2023-04-23T04:00:00;98143.59;;;11.37;100.00
59531;BME280;45349;48.692;8.186;2023-04-23T04:02:29;98140.47;;;11.34;100.00
59531;BME280;45349;48.692;8.186;2023-04-23T04:04:56;98134.13;;;11.36;100.00
59531;BME280;45349;48.692;8.186;2023-04-23T04:07:23;98137.06;;;11.33;100.00
59531;BME280;45349;48.692;8.186;2023-04-23T04:09:50;98138.84;;;11.33;100.00
59531;BME280;45349;48.692;8.186;2023-04-23T04:12:16;98134.78;;;11.30;100.00
59531;BME280;45349;48.692;8.186;2023-04-23T04:14:43;98132.81;;;11.32;100.00
59531;BME280;45349;48.692;8.186;2023-04-23T04:17:10;98132.50;;;11.35;100.00
59531;BME280;45349;48.692;8.186;2023-04-23T04:19:38;98125.00;;;11.32;100.00
59531;BME280;45349;48.692;8.186;2023-04-23T04:22:04;98132.19;;;11.30;100.00
59531;BME280;45349;48.692;8.186;2023-04-23T04:24:31;98128.91;;;11.28;100.00
59531;BME280;45349;48.692;8.186;2023-04-23T04:26:58;98125.31;;;11.29;100.00
59531;BME280;45349;48.692;8.186;2023-04-23T04:29:26;98127.09;;;11.29;100.00
59531;BME280;45349;48.692;8.186;2023-04-23T04:31:52;98125.47;;;11.28;100.00
59531;BME280;45349;48.692;8.186;2023-04-23T04:34:19;98126.78;;;11.23;100.00
59531;BME280;45349;48.692;8.186;2023-04-23T04:36:47;98131.69;;;11.27;100.00
59531;BME280;45349;48.692;8.186;2023-04-23T04:39:18;98130.69;;;11.28;100.00
59531;BME280;45349;48.692;8.186;2023-04-23T04:41:44;98127.28;;;11.27;100.00
59531;BME280;45349;48.692;8.186;2023-04-23T04:44:17;98124.03;;;11.25;100.00
59531;BME280;45349;48.692;8.186;2023-04-23T04:46:44;98122.41;;;11.24;100.00
59531;BME280;45349;48.692;8.186;2023-04-23T04:49:18;98114.06;;;11.20;100.00
59531;BME280;45349;48.692;8.186;2023-04-23T04:51:47;98118.31;;;11.21;100.00
59531;BME280;45349;48.692;8.186;2023-04-23T04:54:17;98121.44;;;11.17;100.00
59531;BME280;45349;48.692;8.186;2023-04-23T04:56:44;98120.44;;;11.18;100.00
59531;BME280;45349;48.692;8.186;2023-04-23T04:59:14;98127.31;;;11.19;100.00
59531;BME280;45349;48.692;8.186;2023-04-23T05:01:41;98121.75;;;11.22;100.00
59531;BME280;45349;48.692;8.186;2023-04-23T05:04:08;98132.66;;;11.26;100.00
59531;BME280;45349;48.692;8.186;2023-04-23T05:06:35;98137.56;;;11.29;100.00
59531;BME280;45349;48.692;8.186;2023-04-23T05:09:03;98136.75;;;11.28;100.00
59531;BME280;45349;48.692;8.186;2023-04-23T05:11:30;98133.47;;;11.34;100.00
59531;BME280;45349;48.692;8.186;2023-04-23T05:14:01;98130.53;;;11.37;100.00
59531;BME280;45349;48.692;8.186;2023-04-23T05:16:28;98122.34;;;11.41;100.00
59531;BME280;45349;48.692;8.186;2023-04-23T05:18:55;98134.09;;;11.45;100.00
59531;BME280;45349;48.692;8.186;2023-04-23T05:21:21;98137.06;;;11.42;100.00
59531;BME280;45349;48.692;8.186;2023-04-23T05:23:48;98122.47;;;11.47;100.00
59531;BME280;45349;48.692;8.186;2023-04-23T05:26:19;98126.38;;;11.51;100.00
59531;BME280;45349;48.692;8.186;2023-04-23T05:28:45;98124.72;;;11.59;100.00
59531;BME280;45349;48.692;8.186;2023-04-23T05:31:12;98120.78;;;11.63;100.00
59531;BME280;45349;48.692;8.186;2023-04-23T05:33:39;98116.22;;;11.65;100.00
59531;BME280;45349;48.692;8.186;2023-04-23T05:36:07;98123.03;;;11.74;99.54
59531;BME280;45349;48.692;8.186;2023-04-23T05:38:35;98123.00;;;11.82;98.98
59531;BME280;45349;48.692;8.186;2023-04-23T05:41:01;98116.59;;;11.85;98.65
59531;BME280;45349;48.692;8.186;2023-04-23T05:43:29;98119.84;;;11.87;97.42
59531;BME280;45349;48.692;8.186;2023-04-23T05:45:56;98110.91;;;11.81;95.86
59531;BME280;45349;48.692;8.186;2023-04-23T05:48:22;98109.97;;;11.74;96.02
59531;BME280;45349;48.692;8.186;2023-04-23T05:50:49;98115.69;;;11.70;97.25
59531;BME280;45349;48.692;8.186;2023-04-23T05:53:15;98108.59;;;11.55;98.31
59531;BME280;45349;48.692;8.186;2023-04-23T05:55:42;98106.66;;;11.49;98.53
59531;BME280;45349;48.692;8.186;2023-04-23T05:58:09;98103.38;;;11.47;98.95
59531;BME280;45349;48.692;8.186;2023-04-23T06:00:36;98109.28;;;11.41;99.10
59531;BME280;45349;48.692;8.186;2023-04-23T06:03:05;98105.84;;;11.40;99.88
59531;BME280;45349;48.692;8.186;2023-04-23T06:05:31;98113.66;;;11.48;97.26
59531;BME280;45349;48.692;8.186;2023-04-23T06:07:58;98114.16;;;11.52;97.29
59531;BME280;45349;48.692;8.186;2023-04-23T06:10:24;98115.78;;;11.53;97.93
59531;BME280;45349;48.692;8.186;2023-04-23T06:12:51;98115.91;;;11.60;97.96
59531;BME280;45349;48.692;8.186;2023-04-23T06:15:19;98109.44;;;11.79;96.60
59531;BME280;45349;48.692;8.186;2023-04-23T06:17:49;98121.63;;;11.95;94.67
59531;BME280;45349;48.692;8.186;2023-04-23T06:20:16;98118.47;;;12.08;92.95
59531;BME280;45349;48.692;8.186;2023-04-23T06:22:43;98117.97;;;12.13;92.27
59531;BME280;45349;48.692;8.186;2023-04-23T06:25:09;98116.53;;;12.25;92.32
59531;BME280;45349;48.692;8.186;2023-04-23T06:27:36;98115.63;;;12.41;90.04
59531;BME280;45349;48.692;8.186;2023-04-23T06:30:10;98112.31;;;12.47;88.54
59531;BME280;45349;48.692;8.186;2023-04-23T06:32:37;98115.44;;;12.66;88.73
59531;BME280;45349;48.692;8.186;2023-04-23T06:35:05;98112.72;;;12.74;87.43
59531;BME280;45349;48.692;8.186;2023-04-23T06:37:32;98110.75;;;12.76;87.08
59531;BME280;45349;48.692;8.186;2023-04-23T06:39:58;98107.31;;;12.76;85.34
59531;BME280;45349;48.692;8.186;2023-04-23T06:42:25;98095.19;;;12.60;89.71
59531;BME280;45349;48.692;8.186;2023-04-23T06:45:15;98100.44;;;12.36;88.59
59531;BME280;45349;48.692;8.186;2023-04-23T06:47:41;98093.22;;;12.38;88.25
59531;BME280;45349;48.692;8.186;2023-04-23T06:50:09;98098.00;;;12.35;87.91
59531;BME280;45349;48.692;8.186;2023-04-23T06:52:36;98098.00;;;12.35;88.32
59531;BME280;45349;48.692;8.186;2023-04-23T06:55:03;98089.97;;;12.36;88.88
59531;BME280;45349;48.692;8.186;2023-04-23T06:57:30;98089.50;;;12.33;89.27
59531;BME280;45349;48.692;8.186;2023-04-23T06:59:57;98087.22;;;12.53;87.89
59531;BME280;45349;48.692;8.186;2023-04-23T07:02:27;98085.03;;;12.80;85.08
59531;BME280;45349;48.692;8.186;2023-04-23T07:04:54;98089.00;;;12.91;84.87
59531;BME280;45349;48.692;8.186;2023-04-23T07:07:22;98090.66;;;13.07;82.78
59531;BME280;45349;48.692;8.186;2023-04-23T07:09:48;98080.34;;;13.05;85.00
59531;BME280;45349;48.692;8.186;2023-04-23T07:12:15;98084.50;;;13.14;83.85
59531;BME280;45349;48.692;8.186;2023-04-23T07:14:42;98085.75;;;13.34;82.18
59531;BME280;45349;48.692;8.186;2023-04-23T07:17:08;98077.25;;;13.32;83.05
59531;BME280;45349;48.692;8.186;2023-04-23T07:19:35;98085.94;;;13.47;82.13
59531;BME280;45349;48.692;8.186;2023-04-23T07:22:02;98079.97;;;13.53;80.71
59531;BME280;45349;48.692;8.186;2023-04-23T07:24:30;98081.06;;;13.59;79.39
59531;BME280;45349;48.692;8.186;2023-04-23T07:26:57;98072.63;;;13.64;81.13
59531;BME280;45349;48.692;8.186;2023-04-23T07:29:23;98070.09;;;13.70;80.97
59531;BME280;45349;48.692;8.186;2023-04-23T07:31:50;98080.03;;;13.75;80.90
59531;BME280;45349;48.692;8.186;2023-04-23T07:34:18;98072.59;;;13.79;76.98
59531;BME280;45349;48.692;8.186;2023-04-23T07:36:44;98072.16;;;13.75;77.79
59531;BME280;45349;48.692;8.186;2023-04-23T07:39:37;98075.03;;;13.80;76.36
59531;BME280;45349;48.692;8.186;2023-04-23T07:42:04;98066.75;;;13.77;77.84
59531;BME280;45349;48.692;8.186;2023-04-23T07:44:30;98061.41;;;13.70;79.79
59531;BME280;45349;48.692;8.186;2023-04-23T07:46:57;98061.97;;;13.87;80.71
59531;BME280;45349;48.692;8.186;2023-04-23T07:49:24;98060.19;;;13.87;77.08
59531;BME280;45349;48.692;8.186;2023-04-23T07:51:51;98057.88;;;13.99;78.39
59531;BME280;45349;48.692;8.186;2023-04-23T07:54:17;98064.50;;;14.17;77.81
59531;BME280;45349;48.692;8.186;2023-04-23T07:56:46;98055.06;;;14.01;77.27
59531;BME280;45349;48.692;8.186;2023-04-23T07:59:18;98060.84;;;14.11;78.46
59531;BME280;45349;48.692;8.186;2023-04-23T08:01:44;98050.59;;;14.16;76.73
59531;BME280;45349;48.692;8.186;2023-04-23T08:04:36;98045.72;;;14.13;76.67
59531;BME280;45349;48.692;8.186;2023-04-23T08:07:02;98049.22;;;14.21;76.04
59531;BME280;45349;48.692;8.186;2023-04-23T08:09:29;98045.88;;;14.34;77.13
59531;BME280;45349;48.692;8.186;2023-04-23T08:11:57;98039.28;;;14.44;77.17
59531;BME280;45349;48.692;8.186;2023-04-23T08:14:23;98035.81;;;14.66;76.08
59531;BME280;45349;48.692;8.186;2023-04-23T08:16:50;98042.06;;;14.93;74.55
59531;BME280;45349;48.692;8.186;2023-04-23T08:19:18;98032.28;;;15.15;71.72
59531;BME280;45349;48.692;8.186;2023-04-23T08:21:44;98028.91;;;15.28;68.09
59531;BME280;45349;48.692;8.186;2023-04-23T08:24:36;98022.22;;;15.26;69.31
59531;BME280;45349;48.692;8.186;2023-04-23T08:27:04;98027.91;;;15.29;69.94
59531;BME280;45349;48.692;8.186;2023-04-23T08:29:31;98025.19;;;15.71;68.55
59531;BME280;45349;48.692;8.186;2023-04-23T08:31:57;98025.66;;;15.95;65.91
59531;BME280;45349;48.692;8.186;2023-04-23T08:34:24;98016.38;;;16.06;63.11
59531;BME280;45349;48.692;8.186;2023-04-23T08:36:51;98013.31;;;16.02;64.22
59531;BME280;45349;48.692;8.186;2023-04-23T08:39:18;98023.47;;;16.26;65.74
59531;BME280;45349;48.692;8.186;2023-04-23T08:41:48;98012.13;;;16.25;65.82
59531;BME280;45349;48.692;8.186;2023-04-23T08:44:22;98017.72;;;16.82;62.36
59531;BME280;45349;48.692;8.186;2023-04-23T08:46:49;98007.75;;;17.05;62.72
59531;BME280;45349;48.692;8.186;2023-04-23T08:49:18;98011.38;;;17.56;60.24
59531;BME280;45349;48.692;8.186;2023-04-23T08:51:48;98009.72;;;18.00;59.13
59531;BME280;45349;48.692;8.186;2023-04-23T08:54:20;98010.56;;;18.01;58.45
59531;BME280;45349;48.692;8.186;2023-04-23T08:56:48;98018.47;;;17.94;56.04
59531;BME280;45349;48.692;8.186;2023-04-23T08:59:18;98012.03;;;17.51;59.52
59531;BME280;45349;48.692;8.186;2023-04-23T09:01:48;98009.16;;;17.60;59.50
59531;BME280;45349;48.692;8.186;2023-04-23T09:04:18;98012.50;;;17.74;54.08
59531;BME280;45349;48.692;8.186;2023-04-23T09:06:45;98009.50;;;17.70;53.18
59531;BME280;45349;48.692;8.186;2023-04-23T09:09:19;97995.91;;;17.34;55.81
59531;BME280;45349;48.692;8.186;2023-04-23T09:11:48;97990.53;;;16.89;57.96
59531;BME280;45349;48.692;8.186;2023-04-23T09:14:18;97998.81;;;17.13;57.30
59531;BME280;45349;48.692;8.186;2023-04-23T09:16:46;97986.50;;;16.86;56.33
59531;BME280;45349;48.692;8.186;2023-04-23T09:19:19;97980.19;;;16.94;54.03
59531;BME280;45349;48.692;8.186;2023-04-23T09:21:46;97977.13;;;17.10;55.73
59531;BME280;45349;48.692;8.186;2023-04-23T09:24:21;97975.81;;;17.33;53.63
59531;BME280;45349;48.692;8.186;2023-04-23T09:26:49;97974.19;;;17.32;56.57
59531;BME280;45349;48.692;8.186;2023-04-23T09:29:19;97973.44;;;17.57;55.64
59531;BME280;45349;48.692;8.186;2023-04-23T09:31:48;97979.88;;;17.68;55.59
59531;BME280;45349;48.692;8.186;2023-04-23T09:34:20;97977.56;;;17.46;54.99
59531;BME280;45349;48.692;8.186;2023-04-23T09:36:49;97975.94;;;17.00;53.63
59531;BME280;45349;48.692;8.186;2023-04-23T09:39:20;97975.16;;;17.45;53.24
59531;BME280;45349;48.692;8.186;2023-04-23T09:41:46;97967.22;;;18.09;52.14
59531;BME280;45349;48.692;8.186;2023-04-23T09:44:20;97964.31;;;17.85;52.43
59531;BME280;45349;48.692;8.186;2023-04-23T09:46:47;97962.41;;;17.99;53.30
59531;BME280;45349;48.692;8.186;2023-04-23T09:49:19;97954.84;;;18.28;52.67
59531;BME280;45349;48.692;8.186;2023-04-23T09:51:49;97956.94;;;18.44;50.68
59531;BME280;45349;48.692;8.186;2023-04-23T09:54:20;97949.84;;;18.20;51.86
59531;BME280;45349;48.692;8.186;2023-04-23T09:56:48;97952.56;;;18.13;51.66
59531;BME280;45349;48.692;8.186;2023-04-23T09:59:19;97956.13;;;17.93;54.01
59531;BME280;45349;48.692;8.186;2023-04-23T10:01:45;97947.38;;;18.25;51.41
59531;BME280;45349;48.692;8.186;2023-04-23T10:04:20;97947.00;;;18.21;51.30
59531;BME280;45349;48.692;8.186;2023-04-23T10:06:48;97930.34;;;18.21;50.96
59531;BME280;45349;48.692;8.186;2023-04-23T10:09:19;97934.91;;;18.32;52.38
59531;BME280;45349;48.692;8.186;2023-04-23T10:11:50;97934.44;;;18.17;52.96
59531;BME280;45349;48.692;8.186;2023-04-23T10:14:18;97934.81;;;17.95;53.04
59531;BME280;45349;48.692;8.186;2023-04-23T10:16:45;97937.97;;;18.54;51.57
59531;BME280;45349;48.692;8.186;2023-04-23T10:19:22;97932.97;;;18.46;51.27
59531;BME280;45349;48.692;8.186;2023-04-23T10:21:52;97927.22;;;18.31;51.75
59531;BME280;45349;48.692;8.186;2023-04-23T10:24:22;97935.88;;;18.38;52.20
59531;BME280;45349;48.692;8.186;2023-04-23T10:26:55;97935.44;;;18.59;51.79
59531;BME280;45349;48.692;8.186;2023-04-23T10:29:26;97934.06;;;18.57;51.20
59531;BME280;45349;48.692;8.186;2023-04-23T10:31:55;97931.25;;;18.89;49.29
59531;BME280;45349;48.692;8.186;2023-04-23T10:34:24;97920.91;;;18.69;49.46
59531;BME280;45349;48.692;8.186;2023-04-23T10:36:52;97922.72;;;18.31;48.89
59531;BME280;45349;48.692;8.186;2023-04-23T10:39:23;97914.66;;;18.63;50.58
59531;BME280;45349;48.692;8.186;2023-04-23T10:41:50;97913.03;;;18.43;51.64
59531;BME280;45349;48.692;8.186;2023-04-23T10:44:18;97901.91;;;18.60;50.88
59531;BME280;45349;48.692;8.186;2023-04-23T10:46:53;97892.34;;;18.78;50.54
59531;BME280;45349;48.692;8.186;2023-04-23T10:49:24;97893.81;;;18.55;49.92
59531;BME280;45349;48.692;8.186;2023-04-23T10:51:58;97896.97;;;18.64;50.86
59531;BME280;45349;48.692;8.186;2023-04-23T10:54:28;97889.53;;;17.91;51.99
59531;BME280;45349;48.692;8.186;2023-04-23T10:56:58;97890.84;;;18.07;52.02
59531;BME280;45349;48.692;8.186;2023-04-23T10:59:26;97879.72;;;18.24;54.30
59531;BME280;45349;48.692;8.186;2023-04-23T11:01:55;97871.16;;;18.47;52.35
59531;BME280;45349;48.692;8.186;2023-04-23T11:04:25;97867.59;;;18.72;50.85
59531;BME280;45349;48.692;8.186;2023-04-23T11:06:54;97865.19;;;18.70;53.05
59531;BME280;45349;48.692;8.186;2023-04-23T11:09:28;97862.66;;;18.94;51.11
59531;BME280;45349;48.692;8.186;2023-04-23T11:11:56;97860.75;;;19.01;51.90
59531;BME280;45349;48.692;8.186;2023-04-23T11:14:33;97847.88;;;19.05;51.42
59531;BME280;45349;48.692;8.186;2023-04-23T11:17:00;97847.31;;;18.84;49.45
59531;BME280;45349;48.692;8.186;2023-04-23T11:19:28;97836.09;;;18.70;48.01
59531;BME280;45349;48.692;8.186;2023-04-23T11:21:59;97841.81;;;18.86;48.79
59531;BME280;45349;48.692;8.186;2023-04-23T11:24:27;97832.69;;;19.00;51.24
59531;BME280;45349;48.692;8.186;2023-04-23T11:26:55;97828.22;;;19.13;50.52
59531;BME280;45349;48.692;8.186;2023-04-23T11:29:22;97829.44;;;19.29;47.32
59531;BME280;45349;48.692;8.186;2023-04-23T11:31:50;97829.91;;;19.50;46.94
59531;BME280;45349;48.692;8.186;2023-04-23T11:34:18;97820.78;;;19.33;47.45
59531;BME280;45349;48.692;8.186;2023-04-23T11:36:47;97808.97;;;19.72;47.67
59531;BME280;45349;48.692;8.186;2023-04-23T11:39:18;97815.06;;;19.72;47.46
59531;BME280;45349;48.692;8.186;2023-04-23T11:41:45;97813.00;;;19.98;47.27
59531;BME280;45349;48.692;8.186;2023-04-23T11:44:18;97805.97;;;20.16;45.53
59531;BME280;45349;48.692;8.186;2023-04-23T11:46:49;97814.84;;;19.86;46.56
59531;BME280;45349;48.692;8.186;2023-04-23T11:49:18;97801.25;;;19.82;45.79
59531;BME280;45349;48.692;8.186;2023-04-23T11:51:47;97803.53;;;20.26;46.65
59531;BME280;45349;48.692;8.186;2023-04-23T11:54:24;97804.84;;;20.00;44.76
59531;BME280;45349;48.692;8.186;2023-04-23T11:56:52;97801.38;;;19.87;46.93
59531;BME280;45349;48.692;8.186;2023-04-23T11:59:19;97792.19;;;20.02;44.62
59531;BME280;45349;48.692;8.186;2023-04-23T12:01:47;97784.81;;;20.04;46.03
59531;BME280;45349;48.692;8.186;2023-04-23T12:04:19;97788.50;;;19.91;46.24
59531;BME280;45349;48.692;8.186;2023-04-23T12:06:49;97783.19;;;20.03;45.72
59531;BME280;45349;48.692;8.186;2023-04-23T12:09:20;97779.97;;;20.01;45.91
59531;BME280;45349;48.692;8.186;2023-04-23T12:11:47;97785.75;;;19.98;45.64
59531;BME280;45349;48.692;8.186;2023-04-23T12:14:19;97774.97;;;20.16;43.30
59531;BME280;45349;48.692;8.186;2023-04-23T12:16:48;97772.13;;;19.82;45.96
59531;BME280;45349;48.692;8.186;2023-04-23T12:19:19;97778.66;;;20.15;45.23
59531;BME280;45349;48.692;8.186;2023-04-23T12:21:49;97762.41;;;20.24;46.37
59531;BME280;45349;48.692;8.186;2023-04-23T12:24:19;97759.22;;;20.10;45.60
59531;BME280;45349;48.692;8.186;2023-04-23T12:26:48;97764.16;;;20.18;45.45
59531;BME280;45349;48.692;8.186;2023-04-23T12:29:18;97755.50;;;20.52;43.96
59531;BME280;45349;48.692;8.186;2023-04-23T12:31:45;97751.91;;;20.87;45.06
59531;BME280;45349;48.692;8.186;2023-04-23T12:34:37;97751.38;;;20.73;44.53
59531;BME280;45349;48.692;8.186;2023-04-23T12:37:23;97740.59;;;20.62;43.57
59531;BME280;45349;48.692;8.186;2023-04-23T12:39:50;97744.66;;;20.82;43.70
59531;BME280;45349;48.692;8.186;2023-04-23T12:42:17;97739.91;;;20.84;40.67
59531;BME280;45349;48.692;8.186;2023-04-23T12:44:45;97738.31;;;20.83;41.63
59531;BME280;45349;48.692;8.186;2023-04-23T12:47:12;97739.78;;;20.62;44.67
59531;BME280;45349;48.692;8.186;2023-04-23T12:49:40;97734.19;;;20.75;41.33
59531;BME280;45349;48.692;8.186;2023-04-23T12:52:08;97728.47;;;20.67;43.09
59531;BME280;45349;48.692;8.186;2023-04-23T12:54:37;97730.16;;;21.19;42.56
59531;BME280;45349;48.692;8.186;2023-04-23T12:57:05;97731.25;;;20.89;42.32
59531;BME280;45349;48.692;8.186;2023-04-23T12:59:32;97736.38;;;20.49;42.90
59531;BME280;45349;48.692;8.186;2023-04-23T13:02:00;97720.78;;;20.82;43.26
59531;BME280;45349;48.692;8.186;2023-04-23T13:04:26;97715.19;;;20.78;42.21
59531;BME280;45349;48.692;8.186;2023-04-23T13:06:53;97719.34;;;21.26;41.89